Time;durP1;ratioP1;P1;durP2;ratioP2;P2;SDS_P1;SDS_P2;PMS_P1;PMS_P2;Temp;Humidity;BMP_temperature;BMP_pressure;BME280_temperature;BME280_humidity;BME280_pressure;Samples;Min_cycle;Max_cycle;Signal;HPM_P1;HPM_P2
2022/12/26 00:01:41;;;;;;;36.72;22.13;;;;;;;8.21;100.00;101617.69;5069320;28;20028;-74
2022/12/26 00:04:07;;;;;;;36.65;22.55;;;;;;;8.19;100.00;101622.16;5077183;28;20123;-73
2022/12/26 00:06:33;;;;;;;37.20;22.95;;;;;;;8.20;100.00;101623.81;5066565;28;20111;-74
2022/12/26 00:09:00;;;;;;;36.53;22.17;;;;;;;8.19;100.00;101631.72;5067608;28;20063;-75
2022/12/26 00:11:26;;;;;;;37.03;23.60;;;;;;;8.18;100.00;101632.66;5048950;28;20443;-74
2022/12/26 00:14:01;;;;;;;40.97;24.63;;;;;;;8.18;100.00;101628.28;5073389;28;20116;-74
2022/12/26 00:16:27;;;;;;;37.97;24.83;;;;;;;8.19;100.00;101636.91;5064885;28;20407;-73
2022/12/26 00:18:53;;;;;;;40.50;24.90;;;;;;;8.17;100.00;101624.03;5071529;28;20044;-73
2022/12/26 00:21:20;;;;;;;40.25;25.85;;;;;;;8.18;100.00;101622.25;5068966;28;20084;-73
2022/12/26 00:23:46;;;;;;;38.45;25.30;;;;;;;8.19;100.00;101626.53;5069572;28;20032;-73
2022/12/26 00:26:17;;;;;;;38.28;24.80;;;;;;;8.20;100.00;101633.38;5066770;28;20162;-74
2022/12/26 00:28:44;;;;;;;36.63;24.65;;;;;;;8.20;100.00;101621.22;5068532;28;20032;-74
2022/12/26 00:31:12;;;;;;;41.72;26.85;;;;;;;8.22;100.00;101626.31;5068573;28;20138;-73
2022/12/26 00:33:40;;;;;;;42.78;29.23;;;;;;;8.18;100.00;101622.25;5068944;28;20028;-74
2022/12/26 00:36:09;;;;;;;46.00;26.60;;;;;;;8.16;100.00;101624.97;5073548;28;20033;-74
2022/12/26 00:38:36;;;;;;;36.38;23.92;;;;;;;8.15;100.00;101627.66;5068601;28;20431;-73
2022/12/26 00:41:03;;;;;;;35.53;22.95;;;;;;;8.17;100.00;101628.38;5062643;28;20113;-73
2022/12/26 00:43:29;;;;;;;40.90;26.25;;;;;;;8.21;100.00;101630.69;5066022;28;20036;-74
2022/12/26 00:45:55;;;;;;;40.25;26.88;;;;;;;8.22;100.00;101634.94;5061783;28;20513;-74
2022/12/26 00:48:20;;;;;;;40.55;25.38;;;;;;;8.22;100.00;101634.13;5062039;28;20057;-74
2022/12/26 00:50:46;;;;;;;39.85;25.20;;;;;;;8.19;100.00;101636.91;5062266;28;20067;-73
2022/12/26 00:53:11;;;;;;;37.63;25.45;;;;;;;8.17;100.00;101631.81;5063470;28;20038;-74
2022/12/26 00:55:37;;;;;;;35.28;22.70;;;;;;;8.17;100.00;101637.00;5066517;28;20045;-74
2022/12/26 00:58:03;;;;;;;31.90;20.75;;;;;;;8.19;100.00;101642.09;5059455;28;20040;-74
2022/12/26 01:00:29;;;;;;;32.47;20.05;;;;;;;8.20;100.00;101643.75;5063895;28;20040;-74
2022/12/26 01:02:54;;;;;;;31.50;19.38;;;;;;;8.18;100.00;101646.47;5063887;28;20032;-74
2022/12/26 01:05:19;;;;;;;30.20;20.08;;;;;;;8.20;100.00;101638.56;5059309;28;20066;-74
2022/12/26 01:07:45;;;;;;;27.92;18.60;;;;;;;8.20;100.00;101644.59;5063261;28;20553;-74
2022/12/26 01:10:11;;;;;;;29.65;20.08;;;;;;;8.24;100.00;101653.84;5063906;28;20488;-74
2022/12/26 01:12:38;;;;;;;30.48;19.17;;;;;;;8.24;100.00;101651.25;5056515;28;20028;-74
2022/12/26 01:15:04;;;;;;;26.45;18.15;;;;;;;8.24;100.00;101646.06;5066108;28;20039;-74
2022/12/26 01:17:30;;;;;;;30.10;18.83;;;;;;;8.24;100.00;101658.22;5065895;28;20035;-74
2022/12/26 01:19:56;;;;;;;27.23;18.42;;;;;;;8.25;100.00;101657.28;5068931;28;20032;-74
2022/12/26 01:22:22;;;;;;;28.52;17.88;;;;;;;8.23;100.00;101652.19;5065591;28;20036;-74
2022/12/26 01:24:47;;;;;;;31.05;19.00;;;;;;;8.23;100.00;101654.78;5064954;28;20379;-73
2022/12/26 01:27:12;;;;;;;29.02;19.17;;;;;;;8.22;100.00;101657.47;5066723;28;20032;-73
2022/12/26 01:29:38;;;;;;;30.83;18.77;;;;;;;8.21;100.00;101655.81;5077039;28;20028;-74
2022/12/26 01:32:04;;;;;;;34.92;20.73;;;;;;;8.23;100.00;101664.34;5064575;28;20032;-74
2022/12/26 01:34:29;;;;;;;28.60;19.08;;;;;;;8.22;100.00;101658.31;5065957;28;20449;-74
2022/12/26 01:36:55;;;;;;;27.95;17.90;;;;;;;8.23;100.00;101661.75;5065515;28;20029;-74
2022/12/26 01:39:21;;;;;;;30.38;19.58;;;;;;;8.24;100.00;101661.63;5064159;28;20036;-74
2022/12/26 01:41:46;;;;;;;33.25;20.65;;;;;;;8.24;100.00;101658.22;5069435;28;20093;-74
2022/12/26 01:44:49;;;;;;;32.08;19.90;;;;;;;8.23;100.00;101659.16;5066065;28;20456;-74
2022/12/26 01:47:15;;;;;;;31.10;18.23;;;;;;;8.22;100.00;101660.91;5065122;28;20151;-74
2022/12/26 01:49:45;;;;;;;29.05;18.13;;;;;;;8.23;100.00;101659.97;5066133;28;20359;-74
2022/12/26 01:52:23;;;;;;;30.92;19.98;;;;;;;8.20;100.00;101654.16;5063093;28;20117;-74
2022/12/26 01:54:51;;;;;;;25.88;16.65;;;;;;;8.21;100.00;101666.19;5063746;28;20028;-74
2022/12/26 01:57:29;;;;;;;30.63;19.52;;;;;;;8.21;100.00;101671.41;5061449;28;20048;-74
2022/12/26 01:59:59;;;;;;;30.25;18.50;;;;;;;8.22;100.00;101662.66;5062595;28;20033;-74
2022/12/26 02:02:27;;;;;;;30.05;18.35;;;;;;;8.21;100.00;101656.66;5063904;28;20024;-73
2022/12/26 02:07:41;;;;;;;27.95;18.60;;;;;;;8.16;100.00;101666.50;5067800;28;20051;-74
2022/12/26 02:10:12;;;;;;;34.28;19.95;;;;;;;8.15;100.00;101664.84;5062731;28;20049;-73
2022/12/26 02:12:37;;;;;;;27.77;18.63;;;;;;;8.18;100.00;101656.00;5063472;28;20040;-73
2022/12/26 02:15:06;;;;;;;31.42;19.45;;;;;;;8.19;100.00;101652.47;5066217;28;20036;-73
2022/12/26 02:17:32;;;;;;;30.77;18.45;;;;;;;8.22;100.00;101654.88;5064780;28;20036;-74
2022/12/26 02:20:19;;;;;;;30.73;19.50;;;;;;;8.20;100.00;101652.38;5067457;28;20480;-74
2022/12/26 02:22:59;;;;;;;34.55;21.00;;;;;;;8.19;100.00;101650.72;5061604;28;20036;-73
2022/12/26 02:26:02;;;;;;;28.80;19.52;;;;;;;8.18;100.00;101646.47;5062848;28;20063;-74
2022/12/26 02:28:45;;;;;;;25.48;17.92;;;;;;;8.21;100.00;101645.44;5065685;28;20039;-74
2022/12/26 02:31:17;;;;;;;28.00;18.40;;;;;;;8.20;100.00;101647.19;5075650;28;20382;-74
2022/12/26 02:33:48;;;;;;;27.98;18.52;;;;;;;8.22;100.00;101644.50;5070671;28;20129;-74
2022/12/26 02:36:14;;;;;;;31.80;18.60;;;;;;;8.20;100.00;101652.38;5067860;28;20032;-74
2022/12/26 02:39:08;;;;;;;30.17;17.92;;;;;;;8.20;100.00;101649.78;5049518;28;20048;-74
2022/12/26 02:41:45;;;;;;;29.88;17.95;;;;;;;8.20;100.00;101643.75;5065832;28;20116;-73
2022/12/26 02:47:28;;;;;;;30.05;18.42;;;;;;;8.16;100.00;101648.31;5060788;28;20066;-73
2022/12/26 03:13:35;;;;;;;27.30;16.92;;;;;;;8.11;100.00;101627.03;5066233;28;20507;-73
2022/12/26 03:18:54;;;;;;;25.17;16.35;;;;;;;8.12;100.00;101620.91;5068528;28;20088;-74
2022/12/26 03:21:25;;;;;;;23.80;14.48;;;;;;;8.12;100.00;101620.91;5067558;28;20469;-74
2022/12/26 03:23:52;;;;;;;27.40;16.98;;;;;;;8.13;100.00;101614.78;5069560;28;20048;-73
2022/12/26 03:26:39;;;;;;;25.60;17.42;;;;;;;8.15;100.00;101617.28;5067178;28;20024;-74
2022/12/26 03:31:52;;;;;;;27.63;16.55;;;;;;;8.16;100.00;101626.72;5060151;28;20059;-74
2022/12/26 03:34:18;;;;;;;25.17;17.33;;;;;;;8.16;100.00;101630.16;5070467;28;20064;-74
2022/12/26 03:37:06;;;;;;;26.75;16.65;;;;;;;8.17;100.00;101630.97;5069327;28;20082;-74
2022/12/26 04:19:26;;;;;;;25.20;14.48;;;;;;;8.14;100.00;101624.22;5069004;28;20036;-74
2022/12/26 04:45:48;;;;;;;47.63;29.77;;;;;;;8.10;100.00;101624.53;5067187;28;20113;-74
2022/12/26 04:50:58;;;;;;;39.67;26.50;;;;;;;8.11;100.00;101633.97;5067678;28;20039;-74
2022/12/26 04:53:23;;;;;;;39.47;26.05;;;;;;;8.11;100.00;101629.63;5064894;28;20024;-73
2022/12/26 04:55:49;;;;;;;45.45;31.25;;;;;;;8.12;100.00;101627.84;5048112;28;20048;-74
2022/12/26 04:58:14;;;;;;;35.15;23.92;;;;;;;8.10;100.00;101627.94;5069112;28;20040;-74
2022/12/26 05:00:40;;;;;;;38.85;25.70;;;;;;;8.13;100.00;101622.56;5064026;28;20074;-74
2022/12/26 05:11:25;;;;;;;36.97;24.38;;;;;;;8.13;100.00;101622.56;5068049;28;20047;-74
2022/12/26 05:13:55;;;;;;;39.78;24.88;;;;;;;8.13;100.00;101617.38;5069087;28;20101;-74
2022/12/26 05:30:07;;;;;;;27.67;17.77;;;;;;;8.13;100.00;101626.91;5063567;28;20039;-74
2022/12/26 05:35:17;;;;;;;26.05;16.40;;;;;;;8.10;100.00;101625.34;5061069;28;20051;-74
2022/12/26 05:37:43;;;;;;;25.83;17.40;;;;;;;8.12;100.00;101625.25;5064439;28;20098;-74
2022/12/26 05:40:09;;;;;;;30.00;15.65;;;;;;;8.12;100.00;101625.25;5071933;28;20423;-74
2022/12/26 05:42:34;;;;;;;24.83;15.68;;;;;;;8.10;100.00;101627.94;5067313;28;20032;-74
2022/12/26 05:44:59;;;;;;;22.85;15.90;;;;;;;8.10;100.00;101627.94;5050205;28;20368;-74
2022/12/26 05:47:25;;;;;;;26.83;16.20;;;;;;;8.10;100.00;101625.34;5066349;28;20024;-74
2022/12/26 05:49:51;;;;;;;22.60;14.27;;;;;;;8.09;100.00;101628.88;5067271;28;20543;-74
2022/12/26 05:52:17;;;;;;;27.50;14.18;;;;;;;8.08;100.00;101632.41;5064442;28;21082;-74
2022/12/26 05:54:42;;;;;;;23.80;14.82;;;;;;;8.07;100.00;101632.50;5066753;28;20083;-74
2022/12/26 05:57:08;;;;;;;22.42;14.98;;;;;;;8.06;100.00;101634.28;5046241;28;20462;-74
2022/12/26 05:59:33;;;;;;;23.45;15.95;;;;;;;8.06;100.00;101628.25;5063631;28;20032;-74
2022/12/26 06:01:58;;;;;;;28.13;17.83;;;;;;;8.01;100.00;101614.78;5065272;28;20497;-74
2022/12/26 06:04:25;;;;;;;25.75;17.48;;;;;;;8.00;100.00;101626.91;5048951;28;20146;-74
2022/12/26 06:06:51;;;;;;;25.65;16.67;;;;;;;8.02;100.00;101629.41;5061291;28;20948;-73
2022/12/26 06:09:16;;;;;;;26.67;15.52;;;;;;;8.02;100.00;101630.25;5073553;28;20060;-73
2022/12/26 06:11:41;;;;;;;28.30;17.23;;;;;;;8.03;100.00;101634.50;5065708;28;20134;-73
2022/12/26 06:14:07;;;;;;;22.38;14.02;;;;;;;8.03;100.00;101618.94;5072722;28;20086;-73
2022/12/26 06:16:32;;;;;;;26.60;16.40;;;;;;;8.02;100.00;101619.88;5061146;28;20024;-73
2022/12/26 06:18:58;;;;;;;24.27;16.85;;;;;;;8.04;100.00;101622.31;5066238;28;20057;-73
2022/12/26 06:21:23;;;;;;;24.10;15.80;;;;;;;8.06;100.00;101625.66;5067662;28;20017;-73
2022/12/26 06:23:49;;;;;;;25.00;15.73;;;;;;;8.07;100.00;101632.50;5065843;28;20472;-74
2022/12/26 06:26:15;;;;;;;26.27;16.33;;;;;;;8.05;100.00;101630.00;5067216;28;20036;-73
2022/12/26 06:28:42;;;;;;;29.85;16.63;;;;;;;8.05;100.00;101645.59;5067945;28;20040;-73
2022/12/26 06:31:14;;;;;;;24.15;15.15;;;;;;;8.03;100.00;101647.47;5062340;28;20017;-73
2022/12/26 06:33:40;;;;;;;26.67;16.23;;;;;;;8.05;100.00;101649.94;5064570;28;20032;-73
2022/12/26 06:36:12;;;;;;;25.67;16.30;;;;;;;8.02;100.00;101645.81;5058784;28;20067;-73
2022/12/26 06:38:37;;;;;;;21.15;14.85;;;;;;;8.02;100.00;101632.00;5064567;28;20193;-73
2022/12/26 06:41:05;;;;;;;24.35;16.88;;;;;;;8.03;100.00;101642.28;5070734;28;20028;-73
2022/12/26 06:43:30;;;;;;;22.83;15.32;;;;;;;8.03;100.00;101652.66;5065593;28;20047;-73
2022/12/26 06:45:57;;;;;;;26.77;16.90;;;;;;;8.03;100.00;101652.66;5071303;28;20482;-73
2022/12/26 06:48:23;;;;;;;24.70;16.52;;;;;;;8.04;100.00;101653.47;5071738;28;20029;-73
2022/12/26 06:50:49;;;;;;;26.85;17.63;;;;;;;8.03;100.00;101663.06;5070342;28;20032;-73
2022/12/26 06:53:14;;;;;;;33.22;20.52;;;;;;;8.03;100.00;101655.28;5067917;28;20496;-73
2022/12/26 06:55:40;;;;;;;28.88;18.55;;;;;;;8.04;100.00;101656.91;5074225;28;20040;-73
2022/12/26 06:58:05;;;;;;;31.70;19.63;;;;;;;8.02;100.00;101651.00;5073911;28;20040;-73
2022/12/26 07:00:31;;;;;;;33.88;20.63;;;;;;;8.01;100.00;101657.13;5069249;28;20037;-73
2022/12/26 07:02:56;;;;;;;33.65;21.85;;;;;;;8.02;100.00;101666.59;5071219;28;20013;-73
2022/12/26 07:05:21;;;;;;;39.83;23.05;;;;;;;8.02;100.00;101655.38;5068107;28;20044;-73
2022/12/26 07:07:53;;;;;;;36.40;22.48;;;;;;;7.98;100.00;101654.72;5052428;28;20048;-73
2022/12/26 07:10:19;;;;;;;38.28;24.33;;;;;;;7.94;100.00;101658.44;5070963;28;20016;-73
2022/12/26 07:12:48;;;;;;;38.30;24.30;;;;;;;7.95;100.00;101654.94;5068622;28;20036;-73
2022/12/26 07:15:14;;;;;;;38.00;24.15;;;;;;;7.96;100.00;101661.78;5068656;28;20033;-73
2022/12/26 07:17:39;;;;;;;38.53;24.13;;;;;;;7.97;100.00;101650.47;5065010;28;20066;-73
2022/12/26 07:20:06;;;;;;;45.80;25.33;;;;;;;8.02;100.00;101656.19;5052857;28;20040;-73
2022/12/26 07:22:32;;;;;;;34.78;23.23;;;;;;;8.04;100.00;101659.50;5067612;28;20024;-73
2022/12/26 07:24:58;;;;;;;38.67;23.65;;;;;;;8.08;100.00;101666.16;5064521;28;20044;-73
2022/12/26 07:27:23;;;;;;;36.95;22.52;;;;;;;8.10;100.00;101661.69;5075498;28;20024;-73
2022/12/26 07:29:49;;;;;;;33.65;22.15;;;;;;;8.09;100.00;101669.59;5069683;28;20986;-73
2022/12/26 07:32:14;;;;;;;35.90;23.30;;;;;;;8.08;100.00;101665.31;5070960;28;20503;-74
2022/12/26 07:34:43;;;;;;;35.72;22.73;;;;;;;8.11;100.00;101670.31;5042471;28;20115;-73
2022/12/26 07:37:08;;;;;;;32.63;22.85;;;;;;;8.13;100.00;101671.88;5069120;28;20119;-73
2022/12/26 07:39:36;;;;;;;36.70;22.80;;;;;;;8.15;100.00;101677.81;5050577;28;20024;-73
2022/12/26 07:42:02;;;;;;;33.83;22.17;;;;;;;8.18;100.00;101676.78;5068975;28;20036;-73
2022/12/26 07:44:30;;;;;;;28.90;20.10;;;;;;;8.18;100.00;101677.63;5072063;28;20036;-73
2022/12/26 07:46:56;;;;;;;32.47;22.88;;;;;;;8.19;100.00;101684.47;5069537;28;20126;-73
2022/12/26 07:49:22;;;;;;;30.63;20.15;;;;;;;8.19;100.00;101678.44;5067538;28;20050;-74
2022/12/26 07:51:48;;;;;;;34.40;23.90;;;;;;;8.20;100.00;101667.97;5065380;28;20041;-73
2022/12/26 07:54:14;;;;;;;34.22;22.35;;;;;;;8.20;100.00;101670.56;5063928;28;20112;-73
2022/12/26 07:56:40;;;;;;;36.80;22.33;;;;;;;8.23;100.00;101672.13;5066528;28;20131;-73
2022/12/26 07:59:07;;;;;;;32.60;20.85;;;;;;;8.23;100.00;101679.91;5069337;28;20036;-73
2022/12/26 08:01:32;;;;;;;29.45;18.52;;;;;;;8.23;100.00;101685.94;5066698;28;20024;-73
2022/12/26 08:03:58;;;;;;;28.73;18.40;;;;;;;8.22;100.00;101684.28;5069256;28;20373;-73
2022/12/26 08:06:23;;;;;;;27.63;18.80;;;;;;;8.22;100.00;101683.44;5065546;28;20032;-73
2022/12/26 08:08:50;;;;;;;30.70;19.73;;;;;;;8.20;100.00;101682.72;5063167;28;20071;-73
2022/12/26 08:11:21;;;;;;;29.83;19.20;;;;;;;8.21;100.00;101692.16;5065082;28;20028;-73
2022/12/26 08:13:47;;;;;;;30.70;20.05;;;;;;;8.22;100.00;101689.47;5046113;28;20063;-73
2022/12/26 08:16:13;;;;;;;31.70;20.58;;;;;;;8.21;100.00;101695.59;5046200;28;20063;-73
2022/12/26 08:18:39;;;;;;;32.75;19.80;;;;;;;8.26;100.00;101696.13;5056574;28;20025;-74
2022/12/26 08:21:05;;;;;;;31.67;20.13;;;;;;;8.27;100.00;101690.00;5069826;28;20067;-75
2022/12/26 08:23:30;;;;;;;34.28;22.00;;;;;;;8.28;100.00;101696.84;5067062;28;20024;-73
2022/12/26 08:25:56;;;;;;;31.67;19.92;;;;;;;8.30;100.00;101689.81;5062654;28;20041;-73
2022/12/26 08:28:22;;;;;;;26.30;17.75;;;;;;;8.32;100.00;101694.91;5069047;28;20396;-73
2022/12/26 08:30:48;;;;;;;31.45;20.20;;;;;;;8.32;100.00;101693.16;5072014;28;20044;-73
2022/12/26 08:33:15;;;;;;;36.55;23.52;;;;;;;8.28;100.00;101696.84;5066109;28;20029;-71
2022/12/26 08:35:41;;;;;;;32.90;23.75;;;;;;;8.26;100.00;101706.50;5061447;28;20484;-73
2022/12/26 08:38:06;;;;;;;35.33;23.50;;;;;;;8.26;100.00;101703.91;5068265;28;20170;-73
2022/12/26 08:40:32;;;;;;;33.20;22.23;;;;;;;8.29;100.00;101708.09;5074111;28;20032;-72
2022/12/26 08:42:58;;;;;;;35.97;22.15;;;;;;;8.30;100.00;101707.97;5062674;28;20025;-72
2022/12/26 08:45:24;;;;;;;36.20;24.45;;;;;;;8.32;100.00;101711.34;5067609;28;20040;-73
2022/12/26 08:47:50;;;;;;;37.22;24.02;;;;;;;8.37;100.00;101707.63;5065417;28;20087;-73
2022/12/26 08:50:16;;;;;;;36.65;23.45;;;;;;;8.37;100.00;101716.25;5073109;28;20089;-73
2022/12/26 08:52:42;;;;;;;43.50;25.98;;;;;;;8.38;100.00;101730.06;5071793;28;20037;-73
2022/12/26 08:55:08;;;;;;;36.63;22.95;;;;;;;8.41;100.00;101730.69;5066605;28;20040;-73
2022/12/26 08:57:33;;;;;;;38.67;25.00;;;;;;;8.45;100.00;101724.38;5064135;28;20034;-73
2022/12/26 08:59:59;;;;;;;32.50;23.45;;;;;;;8.47;100.00;101734.66;5067854;28;20118;-73
2022/12/26 09:02:24;;;;;;;27.20;17.63;;;;;;;8.48;100.00;101728.53;5067249;28;20028;-73
2022/12/26 09:04:50;;;;;;;30.33;20.83;;;;;;;8.48;100.00;101731.13;5065827;28;20440;-75
2022/12/26 09:07:16;;;;;;;30.63;19.17;;;;;;;8.48;100.00;101725.94;5064280;28;20032;-75
2022/12/26 09:09:42;;;;;;;27.80;18.63;;;;;;;8.50;100.00;101739.66;5061862;28;20039;-74
2022/12/26 09:12:08;;;;;;;30.83;19.45;;;;;;;8.52;100.00;101735.16;5064064;28;20044;-75
2022/12/26 09:14:34;;;;;;;33.13;21.20;;;;;;;8.53;100.00;101731.63;5068791;28;20396;-74
2022/12/26 09:17:00;;;;;;;29.95;19.38;;;;;;;8.54;100.00;101738.50;5051368;28;20472;-74
2022/12/26 09:19:28;;;;;;;27.98;19.40;;;;;;;8.53;100.00;101734.22;5063075;28;20031;-74
2022/12/26 09:22:49;;;;;;;31.52;21.70;;;;;;;8.53;100.00;101734.22;5062505;28;20029;-74
2022/12/26 09:24:40;;;;;;;29.27;20.58;;;;;;;8.47;100.00;101730.28;5064821;28;20052;-74
2022/12/26 09:27:06;;;;;;;34.65;21.95;;;;;;;8.45;100.00;101726.97;5065840;28;20086;-74
2022/12/26 09:29:32;;;;;;;29.48;19.65;;;;;;;8.47;100.00;101734.66;5068387;28;20035;-74
2022/12/26 09:31:57;;;;;;;34.60;23.15;;;;;;;8.49;100.00;101741.41;5071204;28;20098;-74
2022/12/26 09:34:23;;;;;;;32.22;22.50;;;;;;;8.50;100.00;101729.25;5070456;28;20039;-74
2022/12/26 09:36:48;;;;;;;29.88;20.83;;;;;;;8.51;100.00;101733.50;5064655;28;20013;-74
2022/12/26 09:39:14;;;;;;;33.42;23.17;;;;;;;8.52;100.00;101727.38;5067918;28;20455;-74
2022/12/26 09:41:48;;;;;;;40.42;26.50;;;;;;;8.54;100.00;101720.31;5069396;28;20024;-74
2022/12/26 09:44:19;;;;;;;36.88;25.52;;;;;;;8.57;100.00;101720.09;5069829;28;20031;-74
2022/12/26 09:47:08;;;;;;;39.42;26.00;;;;;;;8.58;100.00;101713.97;5064860;28;20460;-74
2022/12/26 09:49:56;;;;;;;41.28;26.45;;;;;;;8.62;100.00;101715.44;5059138;28;20412;-74
2022/12/26 09:52:32;;;;;;;44.40;28.38;;;;;;;8.69;100.00;101719.31;5043499;28;20029;-74
2022/12/26 09:55:01;;;;;;;48.63;34.03;;;;;;;8.74;100.00;101719.00;5064110;28;20033;-72
2022/12/26 09:57:38;;;;;;;46.38;32.38;;;;;;;8.78;100.00;101717.88;5065400;28;21033;-73
2022/12/26 10:00:05;;;;;;;48.35;32.35;;;;;;;8.82;100.00;101709.75;5070042;28;20544;-73
2022/12/26 10:02:31;;;;;;;47.15;33.33;;;;;;;8.84;100.00;101707.91;5063345;28;20029;-74
2022/12/26 10:04:58;;;;;;;49.53;33.42;;;;;;;8.84;100.00;101710.50;5062227;28;20041;-73
2022/12/26 10:07:43;;;;;;;55.90;38.95;;;;;;;8.83;100.00;101708.00;5065093;28;20036;-71
2022/12/26 10:10:14;;;;;;;56.97;40.40;;;;;;;8.83;100.00;101705.41;5060225;28;20048;-74
2022/12/26 10:13:03;;;;;;;62.13;44.33;;;;;;;8.84;100.00;101701.88;5067705;28;20460;-76
2022/12/26 10:15:34;;;;;;;71.20;50.67;;;;;;;8.86;100.00;101702.59;5065673;28;20075;-74
2022/12/26 10:18:02;;;;;;;67.95;44.53;;;;;;;8.88;100.00;101700.72;5073932;28;20040;-73
2022/12/26 10:21:06;;;;;;;69.10;49.75;;;;;;;8.90;100.00;101704.06;5066737;28;20480;-73
2022/12/26 10:23:35;;;;;;;71.18;45.17;;;;;;;8.91;100.00;101703.13;5027193;28;20051;-74
2022/12/26 10:26:05;;;;;;;65.80;44.17;;;;;;;8.91;100.00;101698.75;5063376;28;20120;-74
2022/12/26 10:28:58;;;;;;;64.07;44.85;;;;;;;8.90;100.00;101702.28;5063844;28;20039;-74
2022/12/26 10:31:29;;;;;;;64.15;43.42;;;;;;;8.89;100.00;101700.63;5066456;28;20472;-74
2022/12/26 10:34:07;;;;;;;60.70;41.83;;;;;;;8.88;100.00;101698.97;5057631;28;20384;-74
2022/12/26 10:36:40;;;;;;;55.95;38.25;;;;;;;8.91;100.00;101703.94;5067724;28;20027;-74
2022/12/26 10:39:16;;;;;;;57.65;39.28;;;;;;;8.88;100.00;101696.34;5062792;28;20568;-73
2022/12/26 10:41:45;;;;;;;65.35;44.60;;;;;;;8.85;100.00;101701.75;5069035;28;20462;-73
2022/12/26 10:44:12;;;;;;;69.60;45.13;;;;;;;8.85;100.00;101699.16;5070380;28;20120;-74
2022/12/26 10:46:59;;;;;;;59.83;40.58;;;;;;;8.82;100.00;101694.16;5065949;28;20036;-73
2022/12/26 10:49:26;;;;;;;60.65;40.80;;;;;;;8.83;100.00;101689.81;5063943;28;20480;-73
2022/12/26 10:51:55;;;;;;;61.22;40.50;;;;;;;8.86;100.00;101694.81;5061824;28;20032;-73
2022/12/26 10:54:20;;;;;;;55.03;38.72;;;;;;;8.88;100.00;101703.31;5064787;28;20047;-74
2022/12/26 10:56:49;;;;;;;58.10;40.10;;;;;;;8.86;100.00;101695.63;5063638;28;20053;-73
2022/12/26 10:59:22;;;;;;;61.22;39.92;;;;;;;8.88;100.00;101701.56;5070348;28;20096;-73
2022/12/26 11:01:48;;;;;;;57.88;41.13;;;;;;;8.91;100.00;101693.56;5062832;28;20115;-73
2022/12/26 11:04:25;;;;;;;59.88;41.58;;;;;;;8.90;100.00;101691.88;5063994;28;20055;-73
2022/12/26 11:06:53;;;;;;;61.40;40.03;;;;;;;8.93;100.00;101689.09;5062691;28;20086;-73
2022/12/26 11:09:41;;;;;;;56.50;39.08;;;;;;;8.95;100.00;101689.81;5061653;28;20029;-74
2022/12/26 11:12:34;;;;;;;59.13;42.17;;;;;;;8.96;100.00;101681.09;5061833;28;20035;-73
2022/12/26 11:15:04;;;;;;;67.82;44.95;;;;;;;8.97;100.00;101687.94;5062602;28;20033;-73
2022/12/26 11:17:35;;;;;;;64.50;45.28;;;;;;;8.99;100.00;101683.44;5064907;28;20555;-74
2022/12/26 11:20:17;;;;;;;67.82;46.20;;;;;;;8.98;100.00;101678.34;5064570;28;20495;-73
2022/12/26 11:22:43;;;;;;;59.83;39.40;;;;;;;8.97;100.00;101680.16;5061512;28;20025;-73
2022/12/26 11:25:09;;;;;;;69.05;47.75;;;;;;;8.97;100.00;101674.13;5062478;28;20571;-73
2022/12/26 11:27:36;;;;;;;69.95;49.17;;;;;;;8.95;100.00;101663.00;5047972;28;20131;-72
2022/12/26 11:30:18;;;;;;;77.88;54.13;;;;;;;8.90;100.00;101657.28;5065188;28;20033;-72
2022/12/26 11:32:47;;;;;;;72.85;50.78;;;;;;;8.92;100.00;101652.81;5048523;28;20037;-72
2022/12/26 11:35:25;;;;;;;67.22;44.97;;;;;;;8.88;100.00;101654.78;5063760;28;20425;-72
2022/12/26 11:37:54;;;;;;;63.22;42.78;;;;;;;8.85;100.00;101657.59;5061833;28;20036;-72
2022/12/26 11:40:24;;;;;;;58.30;39.58;;;;;;;8.84;100.00;101661.13;5063398;28;20031;-73
2022/12/26 11:42:54;;;;;;;57.78;38.20;;;;;;;8.85;100.00;101656.75;5063163;28;20025;-72
2022/12/26 11:45:24;;;;;;;50.63;33.25;;;;;;;8.85;100.00;101642.00;5065085;28;20237;-72
2022/12/26 11:47:50;;;;;;;51.80;33.88;;;;;;;8.86;100.00;101635.03;5064968;28;20044;-73
2022/12/26 11:50:20;;;;;;;45.35;32.95;;;;;;;8.88;100.00;101636.59;5064953;28;20035;-72
2022/12/26 11:52:55;;;;;;;47.65;33.03;;;;;;;8.92;100.00;101637.22;5065146;28;20421;-72
2022/12/26 11:55:21;;;;;;;41.13;28.02;;;;;;;8.93;100.00;101628.47;5065882;28;20432;-72
2022/12/26 11:57:56;;;;;;;43.63;29.35;;;;;;;8.94;100.00;101630.13;5066429;28;20033;-73
2022/12/26 12:00:24;;;;;;;48.05;30.10;;;;;;;8.98;100.00;101639.34;5065219;28;20065;-72
2022/12/26 12:02:50;;;;;;;43.13;28.20;;;;;;;9.02;100.00;101632.19;5073702;28;20036;-72
2022/12/26 12:05:36;;;;;;;46.17;31.33;;;;;;;9.03;100.00;101624.28;5065913;28;20040;-72
2022/12/26 12:08:26;;;;;;;44.40;29.13;;;;;;;9.01;100.00;101620.13;5068152;28;20044;-73
2022/12/26 12:11:30;;;;;;;39.03;27.75;;;;;;;9.01;100.00;101617.50;5067361;28;20039;-75
2022/12/26 12:14:20;;;;;;;37.58;25.63;;;;;;;9.02;100.00;101624.38;5036811;28;20037;-74
2022/12/26 12:16:54;;;;;;;38.40;23.98;;;;;;;9.01;100.00;101618.34;5069215;28;20040;-74
2022/12/26 12:19:20;;;;;;;37.95;24.55;;;;;;;9.05;100.00;101616.38;5065538;28;20037;-74
2022/12/26 12:21:54;;;;;;;33.08;22.55;;;;;;;8.99;100.00;101613.25;5068656;28;20485;-74
2022/12/26 12:24:45;;;;;;;35.85;24.05;;;;;;;9.04;100.00;101609.50;5064389;28;20109;-74
2022/12/26 12:27:28;;;;;;;32.75;23.40;;;;;;;9.01;100.00;101599.31;5061854;28;20044;-74
2022/12/26 12:29:59;;;;;;;33.60;22.38;;;;;;;9.04;100.00;101604.31;5066840;28;20066;-74
2022/12/26 12:32:48;;;;;;;35.85;24.30;;;;;;;9.06;100.00;101597.22;5062347;28;20115;-74
2022/12/26 12:35:29;;;;;;;37.45;24.15;;;;;;;9.09;100.00;101597.03;5066675;28;20032;-74
2022/12/26 12:38:15;;;;;;;37.72;25.45;;;;;;;9.09;100.00;101599.63;5063558;28;20033;-74
2022/12/26 12:41:14;;;;;;;40.90;26.50;;;;;;;9.10;100.00;101603.88;5065385;28;20585;-74
2022/12/26 12:44:03;;;;;;;37.85;26.98;;;;;;;9.09;100.00;101591.81;5060178;28;20040;-74
2022/12/26 12:47:06;;;;;;;42.33;28.65;;;;;;;9.10;100.00;101590.88;5070830;28;20032;-74
2022/12/26 12:49:52;;;;;;;45.53;28.63;;;;;;;9.11;100.00;101598.56;5047467;28;20094;-74
2022/12/26 12:52:48;;;;;;;46.63;30.45;;;;;;;9.12;100.00;101581.22;5069986;28;20032;-74
2022/12/26 12:55:31;;;;;;;44.65;29.55;;;;;;;9.15;100.00;101589.63;5061473;28;20044;-74
2022/12/26 12:58:10;;;;;;;46.25;32.75;;;;;;;9.14;100.00;101590.56;5045222;28;20037;-74
2022/12/26 13:00:39;;;;;;;39.10;27.83;;;;;;;9.14;100.00;101593.16;5027888;28;22783;-74
2022/12/26 13:03:39;;;;;;;62.60;41.13;;;;;;;9.12;100.00;101594.22;5045701;28;20017;-74
2022/12/26 13:06:16;;;;;;;52.58;35.50;;;;;;;9.11;100.00;101585.56;5033103;28;20595;-74
2022/12/26 13:08:49;;;;;;;51.90;34.92;;;;;;;9.15;100.00;101588.78;5040828;28;20549;-74
2022/12/26 13:11:43;;;;;;;46.90;35.13;;;;;;;9.14;100.00;101589.72;5049392;28;20035;-74
2022/12/26 13:14:28;;;;;;;53.10;33.85;;;;;;;9.13;100.00;101582.88;5045801;28;20519;-74
2022/12/26 13:17:03;;;;;;;46.95;33.08;;;;;;;9.12;100.00;101583.81;5041760;28;20396;-74
2022/12/26 13:19:39;;;;;;;51.55;34.15;;;;;;;9.14;100.00;101584.53;5047411;28;20425;-74
2022/12/26 13:22:13;;;;;;;50.65;34.22;;;;;;;9.12;100.00;101583.81;5045975;28;20029;-73
2022/12/26 13:24:48;;;;;;;51.78;35.35;;;;;;;9.11;100.00;101576.94;5044300;28;20032;-74
2022/12/26 13:27:36;;;;;;;55.20;34.20;;;;;;;9.10;100.00;101583.09;5047751;28;20136;-74
2022/12/26 13:30:11;;;;;;;51.70;35.03;;;;;;;9.11;100.00;101574.34;5048766;28;20036;-74
2022/12/26 13:32:37;;;;;;;46.80;33.63;;;;;;;9.07;100.00;101578.09;5040101;28;20045;-74